Ashville, Ohio
Current Conditions -  °F | °C
As of 12:35 AM on Tuesday 27 Jan 2015 (Local Time) from KLCK Reporting Station
Overcast Overcast  
Wind Chill: 11°   Ceiling: 9500
Heat Index: 11°   Visibility: 10mi
Dew Point:   Wind: 3mph
Humidity: 89%   Direction: 330°NNW
Pressure: 29.95"   Gusts: NA
Location:  39.72°N, 82.95°W
Report Text: KLCK 270535Z AUTO 33003KT 10SM OVC095 M12/M13 A2995 RMK AO2 T11171132
Loading
Personal Weather Stations






























Interactive Weather Map New forecast layout! Learn more

10-Day Weather Forecast

Advertisements
Track Severe Weather on mobile